Sat, 04 Dec 2021 05:25:52 UTC

Information for RPM qdox-0:2.0-3.M9.module_el8.0.0+10+8b25747c.noarch.rpm

ID18359
Nameqdox
Version2.0
Release3.M9.module_el8.0.0+10+8b25747c
Epoch0
Archnoarch
SummaryExtract class/interface/method definitions from sources
DescriptionQDox is a high speed, small footprint parser for extracting class/interface/method definitions from source files complete with JavaDoc @tags. It is designed to be used by active code generators or documentation tools.
Build Time2019-07-15 21:53:13 GMT
Size304711
bd5a4248cedba305d7087958e3ab6a0c
LicenseASL 2.0
Buildrootmodule-javapackages-tools-201801-8000020190628172923-b07bea58-build-7379-1943
Provides
mvn(com.thoughtworks.qdox:qdox) = 2.0.M9
mvn(com.thoughtworks.qdox:qdox:pom:) = 2.0.M9
mvn(qdox:qdox) = 2.0.M9
mvn(qdox:qdox:pom:) = 2.0.M9
osgi(com.thoughtworks.qdox) = 1.6.3
qdox = 0:2.0-3.M9.module_el8.0.0+10+8b25747c
Obsoletes No Obsoletes
Conflicts No Conflicts
Requires
java-headless >= 1:1.5
javapackages-filesystem
rpmlib(CompressedFileNames) <= 3.0.4-1
rpmlib(FileDigests) <= 4.6.0-1
rpmlib(PayloadFilesHavePrefix) <= 4.0-1
rpmlib(PayloadIsXz) <= 5.2-1
Recommends No Recommends
Suggests No Suggests
Supplements No Supplements
Enhances No Enhances
Files
1 through 6 of 6
Name ascending sort Size
/usr/share/doc/qdox0
/usr/share/doc/qdox/LICENSE.txt589
/usr/share/doc/qdox/README.md21068
/usr/share/java/qdox.jar319109
/usr/share/maven-metadata/qdox.xml1903
/usr/share/maven-poms/qdox.pom12999
Component of
Page:
1 through 50 of 209 >>>
Buildroot Created ascending sort State
dist-c8-build-8146-2032 2019-07-17 22:46:40 expired
dist-c8-build-8170-2032 2019-07-17 23:12:18 expired
dist-c8-build-8172-2034 2019-07-17 23:16:33 expired
dist-c8-build-8178-2034 2019-07-17 23:24:18 expired
module-parfait-0.5-8000020190628020724-37a7f73c-build-9042-2357 2019-07-31 10:26:41 expired
module-parfait-0.5-8000020190628020724-37a7f73c-build-9052-2364 2019-07-31 10:47:02 expired
module-parfait-0.5-8000020190628020724-37a7f73c-build-9066-2376 2019-07-31 11:07:12 expired
module-parfait-0.5-8000020190628020724-37a7f73c-build-9134-2379 2019-07-31 12:17:53 expired
module-parfait-0.5-8000020190628020724-37a7f73c-build-9153-2384 2019-07-31 12:37:56 expired
module-parfait-0.5-8000020190628020724-37a7f73c-build-9165-2385 2019-07-31 12:57:56 expired
module-parfait-0.5-8000020190628020724-37a7f73c-build-9170-2386 2019-07-31 13:18:07 expired
module-parfait-0.5-8000020190628020724-37a7f73c-build-9174-2388 2019-07-31 13:38:22 expired
dist-c8_0-updates-build-9815-2677 2019-10-01 13:36:45 expired
module-pki-deps-10.6-8010020191119184412-cdc1202b-build-12228-3370 2019-11-19 19:49:29 expired
module-pki-deps-10.6-8010020191119184412-cdc1202b-build-12230-3370 2019-11-19 19:49:34 expired
module-pki-deps-10.6-8010020191119184412-cdc1202b-build-12236-3370 2019-11-19 19:59:40 expired
module-pki-deps-10.6-8010020191119184412-cdc1202b-build-12237-3370 2019-11-19 19:59:53 expired
module-pki-deps-10.6-8010020191119184412-cdc1202b-build-12238-3370 2019-11-19 19:59:53 expired
module-pki-deps-10.6-8010020191119184412-cdc1202b-build-12244-3370 2019-11-19 20:09:29 expired
module-pki-deps-10.6-8010020191119184412-cdc1202b-build-12252-3370 2019-11-19 20:19:58 expired
module-pki-deps-10.6-8010020191119184412-cdc1202b-build-12253-3370 2019-11-19 20:20:04 expired
module-pki-deps-10.6-8010020191119184412-cdc1202b-build-12259-3370 2019-11-19 20:29:52 expired
module-pki-deps-10.6-8010020191119184412-cdc1202b-build-12261-3370 2019-11-19 20:29:59 expired
module-pki-deps-10.6-8010020191119184412-cdc1202b-build-12279-3372 2019-11-19 21:00:15 expired
module-pki-deps-10.6-8010020191119184412-cdc1202b-build-12308-3377 2019-11-19 22:20:19 expired
module-pki-deps-10.6-8010020191119184412-cdc1202b-build-12315-3381 2019-11-19 22:40:43 expired
module-pki-deps-10.6-8010020191119184412-cdc1202b-build-12316-3381 2019-11-19 22:40:46 expired
module-pki-deps-10.6-8010020191119184412-cdc1202b-build-12319-3384 2019-11-19 23:00:55 expired
module-pki-deps-10.6-8010020191119184412-cdc1202b-build-12322-3385 2019-11-19 23:20:49 expired
module-pki-deps-10.6-8010020191119184412-cdc1202b-build-12326-3388 2019-11-19 23:41:05 expired
module-pki-deps-10.6-8010020191119184412-cdc1202b-build-12331-3391 2019-11-20 00:02:25 expired
module-pki-deps-10.6-8010020191119184412-cdc1202b-build-12343-3394 2019-11-20 00:22:27 expired
module-pki-deps-10.6-8010020191119184412-cdc1202b-build-12350-3397 2019-11-20 00:52:08 expired
module-pki-deps-10.6-8010020191119184412-cdc1202b-build-12354-3399 2019-11-20 01:12:12 expired
module-pki-deps-10.6-8010020191119184412-cdc1202b-build-12360-3404 2019-11-20 01:52:26 expired
module-pki-deps-10.6-8010020191119184412-cdc1202b-build-12363-3405 2019-11-20 02:12:44 expired
module-pki-deps-10.6-8010020191119184412-cdc1202b-build-12365-3406 2019-11-20 02:33:01 expired
module-mongodb-3.6-8010020191120044531-1cd76107-build-12444-3429 2019-11-20 05:51:54 expired
module-mongodb-3.6-8010020191120044531-1cd76107-build-12456-3429 2019-11-20 06:02:53 expired
module-mongodb-3.6-8010020191120044531-1cd76107-build-12466-3429 2019-11-20 06:12:23 expired
module-mongodb-3.6-8010020191120190538-1cd76107-build-12736-3459 2019-11-20 19:55:07 expired
module-mongodb-3.6-8010020191120190538-1cd76107-build-12737-3459 2019-11-20 19:55:13 expired
module-mongodb-3.6-8010020191120190538-1cd76107-build-12744-3459 2019-11-20 20:05:16 expired
module-mongodb-3.6-8010020191120190538-1cd76107-build-12747-3460 2019-11-20 20:35:11 expired
module-mongodb-3.6-8010020191120190538-1cd76107-build-12753-3463 2019-11-20 21:45:41 expired
dist-c8-updates-build-14044-4864 2020-05-11 18:33:15 expired
module-pki-deps-10.6-8020020200507012048-6a468ee4-build-15324-6743 2020-06-11 22:00:04 expired
module-pki-deps-10.6-8020020200507012048-6a468ee4-build-15325-6743 2020-06-11 22:00:15 expired
module-pki-deps-10.6-8020020200507012048-6a468ee4-build-15326-6743 2020-06-11 22:00:16 expired
module-pki-deps-10.6-8020020200507012048-6a468ee4-build-15327-6743 2020-06-11 22:00:23 expired